createdAt,value
2023-05-02T00:00:28.760Z,100073.13
2023-05-02T00:02:55.693Z,100080.27
2023-05-02T00:05:22.571Z,100080.41
2023-05-02T00:07:50.689Z,100086.89
2023-05-02T00:10:17.799Z,100088.73
2023-05-02T00:12:44.370Z,100090.65
2023-05-02T00:15:10.967Z,100092.41
2023-05-02T00:17:41.166Z,100094.52
2023-05-02T00:20:11.674Z,100093.55
2023-05-02T00:22:38.745Z,100091.67
2023-05-02T00:25:06.197Z,100095.09
2023-05-02T00:27:33.542Z,100093.77
2023-05-02T00:30:00.487Z,100096.05
2023-05-02T00:32:28.211Z,100098.16
2023-05-02T00:34:55.352Z,100098.69
2023-05-02T00:37:25.827Z,100096.24
2023-05-02T00:39:52.485Z,100101.25
2023-05-02T00:42:19.268Z,100105.10
2023-05-02T00:44:46.403Z,100105.80
2023-05-02T00:47:14.509Z,100103.91
2023-05-02T00:49:41.598Z,100105.44
2023-05-02T00:52:08.585Z,100108.38
2023-05-02T00:54:37.718Z,100115.21
2023-05-02T00:57:04.283Z,100111.80
2023-05-02T00:59:31.450Z,100122.11
2023-05-02T01:02:10.560Z,100125.45
2023-05-02T01:05:10.930Z,100131.31
2023-05-02T01:07:59.213Z,100130.38
2023-05-02T01:10:50.979Z,100128.75
2023-05-02T01:13:23.748Z,100131.15
2023-05-02T01:15:51.140Z,100128.80
2023-05-02T01:18:21.161Z,100128.89
2023-05-02T01:20:49.256Z,100129.86
2023-05-02T01:23:30.536Z,100130.35
2023-05-02T01:26:23.112Z,100133.68
2023-05-02T01:28:58.933Z,100136.77
2023-05-02T01:31:27.190Z,100140.98
2023-05-02T01:33:54.486Z,100142.14
2023-05-02T01:36:21.618Z,100140.88
2023-05-02T01:38:48.218Z,100138.44
2023-05-02T01:41:14.928Z,100144.23
2023-05-02T01:43:41.563Z,100150.41
2023-05-02T01:46:10.495Z,100150.30
2023-05-02T01:48:37.563Z,100152.35
2023-05-02T01:51:04.180Z,100151.09
2023-05-02T01:53:31.315Z,100149.65
2023-05-02T01:55:57.925Z,100148.02
2023-05-02T01:58:26.518Z,100145.42
2023-05-02T02:00:53.218Z,100147.21
2023-05-02T02:03:20.001Z,100147.08
2023-05-02T02:05:47.157Z,100144.23
2023-05-02T02:08:13.738Z,100145.58
2023-05-02T02:10:40.967Z,100149.84
2023-05-02T02:13:19.580Z,100149.23
2023-05-02T02:15:48.460Z,100147.27
2023-05-02T02:18:19.503Z,100151.56
2023-05-02T02:20:48.352Z,100146.33
2023-05-02T02:23:15.498Z,100151.00
2023-05-02T02:25:43.004Z,100155.35
2023-05-02T02:28:09.988Z,100154.86
2023-05-02T02:30:36.822Z,100158.39
2023-05-02T02:33:03.994Z,100157.06
2023-05-02T02:35:35.553Z,100155.52
2023-05-02T02:38:24.365Z,100149.98
2023-05-02T02:41:02.047Z,100153.31
2023-05-02T02:43:46.373Z,100153.31
2023-05-02T02:46:35.097Z,100154.08
2023-05-02T02:49:23.844Z,100153.73
2023-05-02T02:51:53.902Z,100154.23
2023-05-02T02:54:33.969Z,100160.48
2023-05-02T02:57:28.843Z,100163.67
2023-05-02T03:00:06.926Z,100163.33
2023-05-02T03:02:34.085Z,100166.45
2023-05-02T03:05:00.880Z,100166.73
2023-05-02T03:07:28.368Z,100166.08
2023-05-02T03:09:55.625Z,100168.86
2023-05-02T03:12:22.530Z,100171.95
2023-05-02T03:14:49.737Z,100172.31
2023-05-02T03:17:17.462Z,100177.13
2023-05-02T03:19:44.514Z,100178.94
2023-05-02T03:22:11.849Z,100183.84
2023-05-02T03:24:38.915Z,100187.56
2023-05-02T03:27:06.302Z,100184.61
2023-05-02T03:29:35.563Z,100187.70
2023-05-02T03:32:02.859Z,100194.38
2023-05-02T03:34:29.878Z,100194.27
2023-05-02T03:36:57.567Z,100194.20
2023-05-02T03:39:25.349Z,100197.79
2023-05-02T03:41:52.061Z,100204.67
2023-05-02T03:44:19.401Z,100207.69
2023-05-02T03:46:46.960Z,100213.17
2023-05-02T03:49:13.689Z,100212.51
2023-05-02T03:51:41.330Z,100218.21
2023-05-02T03:54:09.385Z,100221.23
2023-05-02T03:56:36.760Z,100220.20
2023-05-02T03:59:23.682Z,100220.01
2023-05-02T04:01:50.850Z,100225.11
2023-05-02T04:04:20.080Z,100228.39
2023-05-02T04:06:50.800Z,100224.98
2023-05-02T04:09:18.558Z,100226.38
2023-05-02T04:11:51.611Z,100222.44
2023-05-02T04:14:18.503Z,100223.63
2023-05-02T04:16:49.632Z,100223.38
2023-05-02T04:19:19.903Z,100229.30
2023-05-02T04:21:46.507Z,100230.50
2023-05-02T04:24:14.277Z,100233.58
2023-05-02T04:26:41.403Z,100231.09
2023-05-02T04:29:10.898Z,100231.93
2023-05-02T04:31:38.391Z,100233.23
2023-05-02T04:34:06.468Z,100236.48
2023-05-02T04:36:39.558Z,100240.15
2023-05-02T04:39:07.955Z,100241.73
2023-05-02T04:41:36.697Z,100246.88
2023-05-02T04:44:06.012Z,100254.16
2023-05-02T04:46:33.874Z,100251.84
2023-05-02T04:49:01.091Z,100250.27
2023-05-02T04:51:28.687Z,100252.77
2023-05-02T04:53:56.073Z,100249.64
2023-05-02T04:56:23.066Z,100250.95
2023-05-02T04:58:50.916Z,100251.54
2023-05-02T05:01:17.798Z,100250.86
2023-05-02T05:03:45.938Z,100256.92
2023-05-02T05:06:13.025Z,100252.73
2023-05-02T05:08:40.186Z,100256.95
2023-05-02T05:11:07.374Z,100258.50
2023-05-02T05:13:35.356Z,100256.00
2023-05-02T05:16:03.409Z,100255.23
2023-05-02T05:18:39.687Z,100257.71
2023-05-02T05:21:07.657Z,100260.00
2023-05-02T05:23:35.167Z,100260.67
2023-05-02T05:26:14.960Z,100262.20
2023-05-02T05:28:45.062Z,100260.92
2023-05-02T05:31:16.686Z,100263.41
2023-05-02T05:33:47.100Z,100260.95
2023-05-02T05:36:14.400Z,100261.15
2023-05-02T05:38:41.086Z,100266.25
2023-05-02T05:41:10.486Z,100266.53
2023-05-02T05:43:40.275Z,100271.39
2023-05-02T05:46:07.365Z,100267.73
2023-05-02T05:48:36.316Z,100267.83
2023-05-02T05:51:04.876Z,100266.17
2023-05-02T05:53:32.275Z,100264.22
2023-05-02T05:56:08.057Z,100269.56
2023-05-02T05:58:35.302Z,100261.79
2023-05-02T06:01:02.274Z,100259.55
2023-05-02T06:03:29.499Z,100259.60
2023-05-02T06:05:56.803Z,100261.64
2023-05-02T06:08:23.761Z,100260.66
2023-05-02T06:10:50.503Z,100259.85
2023-05-02T06:13:17.815Z,100257.85
2023-05-02T06:15:45.237Z,100259.77
2023-05-02T06:18:12.136Z,100259.14
2023-05-02T06:20:39.308Z,100262.19
2023-05-02T06:23:05.966Z,100260.37
2023-05-02T06:25:33.482Z,100264.16
2023-05-02T06:28:00.167Z,100267.78
2023-05-02T06:30:26.935Z,100270.88
2023-05-02T06:32:53.628Z,100268.52
2023-05-02T06:35:20.336Z,100268.19
2023-05-02T06:37:47.047Z,100263.91
2023-05-02T06:40:13.913Z,100265.98
2023-05-02T06:42:40.742Z,100263.69
2023-05-02T06:45:07.960Z,100265.80
2023-05-02T06:47:34.984Z,100268.02
2023-05-02T06:50:01.958Z,100265.67
2023-05-02T06:52:29.594Z,100269.91
2023-05-02T06:54:57.489Z,100269.43
2023-05-02T06:57:24.445Z,100273.21
2023-05-02T06:59:51.476Z,100272.24
2023-05-02T07:02:18.355Z,100273.47
2023-05-02T07:04:45.501Z,100271.83
2023-05-02T07:07:12.562Z,100268.29
2023-05-02T07:09:40.316Z,100270.10
2023-05-02T07:12:07.270Z,100270.11
2023-05-02T07:14:35.266Z,100273.30
2023-05-02T07:17:02.198Z,100270.41
2023-05-02T07:19:33.048Z,100263.15
2023-05-02T07:22:00.780Z,100268.94
2023-05-02T07:24:27.513Z,100263.45
2023-05-02T07:26:54.802Z,100265.45
2023-05-02T07:29:21.407Z,100266.23
2023-05-02T07:31:48.077Z,100265.42
2023-05-02T07:34:14.757Z,100256.26
2023-05-02T07:36:41.625Z,100259.23
2023-05-02T07:39:08.553Z,100263.56
2023-05-02T07:41:35.809Z,100259.44
2023-05-02T07:44:02.406Z,100262.58
2023-05-02T07:46:29.816Z,100271.23
2023-05-02T07:48:56.595Z,100271.13
2023-05-02T07:51:23.296Z,100272.42
2023-05-02T07:53:52.417Z,100267.87
2023-05-02T07:56:19.439Z,100263.45
2023-05-02T07:58:46.139Z,100263.52
2023-05-02T08:01:12.831Z,100265.79
2023-05-02T08:03:39.940Z,100258.80
2023-05-02T08:06:07.902Z,100252.20
2023-05-02T08:08:35.547Z,100256.11
2023-05-02T08:11:02.491Z,100254.69
2023-05-02T08:13:29.440Z,100258.94
2023-05-02T08:15:57.626Z,100258.15
2023-05-02T08:18:25.234Z,100256.10
2023-05-02T08:20:52.469Z,100260.70
2023-05-02T08:23:19.360Z,100257.49
2023-05-02T08:25:46.038Z,100251.60
2023-05-02T08:28:13.574Z,100253.58
2023-05-02T08:30:40.705Z,100255.91
2023-05-02T08:33:07.504Z,100251.89
2023-05-02T08:35:34.227Z,100253.33
2023-05-02T08:38:01.481Z,100255.63
2023-05-02T08:40:40.939Z,100254.73
2023-05-02T08:43:08.852Z,100253.36
2023-05-02T08:45:40.959Z,100250.09
2023-05-02T08:48:12.384Z,100246.05
2023-05-02T08:50:40.905Z,100241.05
2023-05-02T08:53:08.888Z,100234.29
2023-05-02T08:55:39.194Z,100226.09
2023-05-02T08:58:06.813Z,100224.64
2023-05-02T09:00:37.690Z,100220.94
2023-05-02T09:03:11.167Z,100223.09
2023-05-02T09:05:41.442Z,100224.83
2023-05-02T09:08:10.711Z,100221.89
2023-05-02T09:10:37.819Z,100215.00
2023-05-02T09:13:36.034Z,100213.84
2023-05-02T09:16:03.876Z,100211.70
2023-05-02T09:18:34.723Z,100204.10
2023-05-02T09:21:05.961Z,100200.02
2023-05-02T09:23:35.688Z,100207.35
2023-05-02T09:26:13.514Z,100195.36
2023-05-02T09:28:42.165Z,100190.55
2023-05-02T09:31:11.011Z,100189.34
2023-05-02T09:33:38.424Z,100184.09
2023-05-02T09:36:06.658Z,100182.46
2023-05-02T09:38:34.158Z,100180.27
2023-05-02T09:41:03.306Z,100181.21
2023-05-02T09:43:31.336Z,100180.13
2023-05-02T09:46:07.544Z,100177.23
2023-05-02T09:48:55.938Z,100174.51
2023-05-02T09:51:23.934Z,100176.71
2023-05-02T09:53:51.327Z,100175.31
2023-05-02T09:56:18.576Z,100177.83
2023-05-02T09:58:45.931Z,100179.42
2023-05-02T10:01:16.712Z,100184.34
2023-05-02T10:03:49.129Z,100181.80
2023-05-02T10:06:18.593Z,100176.61
2023-05-02T10:08:46.787Z,100178.46
2023-05-02T10:11:13.594Z,100177.30
2023-05-02T10:13:42.166Z,100176.11
2023-05-02T10:16:08.853Z,100171.86
2023-05-02T10:18:46.659Z,100172.98
2023-05-02T10:21:16.927Z,100170.88
2023-05-02T10:23:43.660Z,100166.66
2023-05-02T10:26:14.017Z,100165.47
2023-05-02T10:28:41.641Z,100161.27
2023-05-02T10:31:13.038Z,100159.64
2023-05-02T10:33:40.176Z,100152.78
2023-05-02T10:36:08.821Z,100153.62
2023-05-02T10:38:36.308Z,100154.98
2023-05-02T10:44:58.452Z,100160.55
2023-05-02T10:47:26.412Z,100156.73
2023-05-02T10:49:58.512Z,100164.73
2023-05-02T10:52:30.227Z,100159.83
2023-05-02T10:55:17.464Z,100163.34
2023-05-02T10:57:59.435Z,100150.63
2023-05-02T11:00:31.392Z,100148.17
2023-05-02T11:02:58.264Z,100146.89
2023-05-02T11:05:25.788Z,100152.05
2023-05-02T11:08:14.653Z,100147.63
2023-05-02T11:10:41.373Z,100145.08
2023-05-02T11:13:08.870Z,100140.73
2023-05-02T11:15:42.242Z,100138.94
2023-05-02T11:18:12.407Z,100147.39
2023-05-02T11:20:40.580Z,100148.66
2023-05-02T11:23:13.495Z,100137.95
2023-05-02T11:25:42.836Z,100141.97
2023-05-02T11:28:32.620Z,100141.34
2023-05-02T11:30:59.947Z,100132.00
2023-05-02T11:33:27.962Z,100132.06
2023-05-02T11:35:56.502Z,100132.79
2023-05-02T11:38:23.275Z,100132.82
2023-05-02T11:41:02.132Z,100132.63
2023-05-02T11:43:31.608Z,100132.05
2023-05-02T11:46:00.945Z,100131.05
2023-05-02T11:48:27.739Z,100131.17
2023-05-02T11:50:56.320Z,100127.48
2023-05-02T11:53:28.251Z,100131.80
2023-05-02T11:55:59.594Z,100121.86
2023-05-02T11:58:34.673Z,100123.99
2023-05-02T12:01:14.997Z,100118.48
2023-05-02T12:03:48.259Z,100123.72
2023-05-02T12:06:18.269Z,100108.34
2023-05-02T12:08:45.168Z,100111.64
2023-05-02T12:11:15.627Z,100120.02
2023-05-02T12:13:47.186Z,100115.14
2023-05-02T12:16:13.960Z,100111.23
2023-05-02T12:18:40.918Z,100106.01
2023-05-02T12:21:07.901Z,100103.17
2023-05-02T12:23:58.934Z,100102.55
2023-05-02T12:26:35.453Z,100105.23
2023-05-02T12:29:02.407Z,100100.65
2023-05-02T12:31:30.762Z,100102.48
2023-05-02T12:33:59.505Z,100099.92
2023-05-02T12:36:30.070Z,100096.41
2023-05-02T12:39:02.179Z,100097.20
2023-05-02T12:41:37.600Z,100097.52
2023-05-02T12:44:07.810Z,100101.59
2023-05-02T12:46:35.805Z,100106.60
2023-05-02T12:49:08.684Z,100104.38
2023-05-02T12:51:35.956Z,100097.27
2023-05-02T12:54:03.306Z,100093.60
2023-05-02T12:56:34.196Z,100090.83
2023-05-02T12:59:03.515Z,100085.16
2023-05-02T13:01:31.138Z,100081.56
2023-05-02T13:03:58.683Z,100074.60
2023-05-02T13:06:25.727Z,100071.04
2023-05-02T13:08:52.356Z,100073.60
2023-05-02T13:11:20.035Z,100063.43
2023-05-02T13:13:46.701Z,100068.98
2023-05-02T13:16:13.577Z,100067.48
2023-05-02T13:18:40.816Z,100062.59
2023-05-02T13:21:07.638Z,100062.56
2023-05-02T13:23:34.553Z,100068.48
2023-05-02T13:26:01.260Z,100065.00
2023-05-02T13:28:32.557Z,100063.05
2023-05-02T13:30:59.260Z,100063.94
2023-05-02T13:33:25.962Z,100055.84
2023-05-02T13:35:52.554Z,100058.91
2023-05-02T13:38:19.242Z,100059.98
2023-05-02T13:40:46.037Z,100057.86
2023-05-02T13:43:12.787Z,100042.10
2023-05-02T13:45:39.888Z,100049.16
2023-05-02T13:48:06.866Z,100049.77
2023-05-02T13:50:36.733Z,100051.23
2023-05-02T13:53:03.525Z,100048.45
2023-05-02T13:55:30.376Z,100046.67
2023-05-02T13:57:56.985Z,100044.88
2023-05-02T14:00:23.625Z,100042.98
2023-05-02T14:02:50.542Z,100041.95
2023-05-02T14:05:17.341Z,100035.73
2023-05-02T14:07:44.104Z,100032.91
2023-05-02T14:10:10.993Z,100037.06
2023-05-02T14:12:37.901Z,100036.58
2023-05-02T14:15:05.476Z,100028.47
2023-05-02T14:17:32.628Z,100034.38
2023-05-02T14:19:59.545Z,100031.27
2023-05-02T14:22:26.419Z,100024.45
2023-05-02T14:24:53.071Z,100021.80
2023-05-02T14:27:19.843Z,100026.27
2023-05-02T14:29:47.262Z,100016.27
2023-05-02T14:32:14.292Z,100016.48
2023-05-02T14:34:41.350Z,100016.98
2023-05-02T14:37:08.556Z,100017.63
2023-05-02T14:39:36.352Z,100019.90
2023-05-02T14:42:03.909Z,100013.36
2023-05-02T14:44:30.676Z,100006.77
2023-05-02T14:46:57.339Z,100006.08
2023-05-02T14:49:24.825Z,100006.27
2023-05-02T14:51:51.905Z,100000.63
2023-05-02T14:54:19.682Z,100002.14
2023-05-02T14:56:46.744Z,100004.36
2023-05-02T14:59:13.446Z,100003.80
2023-05-02T15:01:40.305Z,100000.65
2023-05-02T15:04:08.342Z,100003.69
2023-05-02T15:06:35.941Z,100004.52
2023-05-02T15:09:04.362Z,100000.97
2023-05-02T15:11:31.200Z,100001.33
2023-05-02T15:13:59.635Z,100001.76
2023-05-02T15:16:26.552Z,100000.32
2023-05-02T15:18:53.207Z,100000.06
2023-05-02T15:21:19.906Z,99996.80
2023-05-02T15:23:47.018Z,99996.98
2023-05-02T15:26:13.626Z,99993.67
2023-05-02T15:28:40.274Z,99992.80
2023-05-02T15:31:06.994Z,99990.48
2023-05-02T15:33:34.126Z,99985.22
2023-05-02T15:36:00.808Z,99982.44
2023-05-02T15:38:27.777Z,99983.63
2023-05-02T15:40:55.160Z,99981.70
2023-05-02T15:43:22.055Z,99984.76
2023-05-02T15:45:53.528Z,99978.05
2023-05-02T15:48:20.701Z,99976.29
2023-05-02T15:50:47.622Z,99979.90
2023-05-02T15:53:15.322Z,99981.73
2023-05-02T15:55:42.579Z,99985.71
2023-05-02T15:58:09.425Z,99985.23
2023-05-02T16:00:36.545Z,99980.83
2023-05-02T16:03:04.092Z,99975.50
2023-05-02T16:05:31.787Z,99979.32
2023-05-02T16:07:58.570Z,99975.33
2023-05-02T16:10:25.178Z,99977.09
2023-05-02T16:12:52.526Z,99972.39
2023-05-02T16:15:19.921Z,99973.67
2023-05-02T16:17:48.419Z,99976.63
2023-05-02T16:20:15.907Z,99978.09
2023-05-02T16:22:46.305Z,99969.80
2023-05-02T16:25:13.575Z,99967.77
2023-05-02T16:27:40.492Z,99963.20
2023-05-02T16:30:07.760Z,99961.02
2023-05-02T16:32:36.698Z,99954.45
2023-05-02T16:35:07.699Z,99953.27
2023-05-02T16:37:35.134Z,99953.13
2023-05-02T16:40:04.779Z,99950.70
2023-05-02T16:42:32.551Z,99951.46
2023-05-02T16:44:59.313Z,99950.30
2023-05-02T16:47:27.266Z,99942.65
2023-05-02T16:49:57.679Z,99938.98
2023-05-02T16:52:25.093Z,99937.39
2023-05-02T16:54:51.792Z,99936.58
2023-05-02T16:57:20.345Z,99934.29
2023-05-02T16:59:47.905Z,99933.45
2023-05-02T17:02:15.088Z,99936.52
2023-05-02T17:04:41.787Z,99935.49
2023-05-02T17:07:08.442Z,99938.20
2023-05-02T17:09:38.337Z,99938.46
2023-05-02T17:12:09.713Z,99938.02
2023-05-02T17:14:38.895Z,99943.86
2023-05-02T17:17:05.550Z,99943.50
2023-05-02T17:19:32.410Z,99950.26
2023-05-02T17:21:59.287Z,99949.78
2023-05-02T17:24:26.050Z,99950.80
2023-05-02T17:26:52.715Z,99952.52
2023-05-02T17:29:19.317Z,99953.23
2023-05-02T17:31:46.433Z,99950.34
2023-05-02T17:34:13.101Z,99956.39
2023-05-02T17:36:41.505Z,99957.75
2023-05-02T17:39:08.951Z,99958.41
2023-05-02T17:41:36.195Z,99960.48
2023-05-02T17:44:04.264Z,99957.85
2023-05-02T17:46:32.403Z,99961.23
2023-05-02T17:49:00.252Z,99962.09
2023-05-02T17:51:27.058Z,99969.77
2023-05-02T17:53:53.782Z,99970.55
2023-05-02T17:56:20.622Z,99978.11
2023-05-02T17:58:48.318Z,99977.98
2023-05-02T18:01:16.851Z,99977.69
2023-05-02T18:03:44.221Z,99981.89
2023-05-02T18:06:17.961Z,99982.80
2023-05-02T18:08:44.905Z,99980.09
2023-05-02T18:11:18.049Z,99984.23
2023-05-02T18:13:44.977Z,99984.11
2023-05-02T18:16:13.032Z,99982.52
2023-05-02T18:18:40.035Z,99986.15
2023-05-02T18:21:06.621Z,99982.67
2023-05-02T18:23:33.517Z,99986.27
2023-05-02T18:26:00.700Z,99987.11
2023-05-02T18:28:27.467Z,99987.02
2023-05-02T18:30:54.190Z,99983.80
2023-05-02T18:33:20.830Z,99982.97
2023-05-02T18:35:48.029Z,99981.71
2023-05-02T18:38:15.209Z,99980.67
2023-05-02T18:40:42.108Z,99980.70
2023-05-02T18:43:08.676Z,99978.46
2023-05-02T18:45:35.445Z,99978.41
2023-05-02T18:48:02.801Z,99982.64
2023-05-02T18:50:29.773Z,99984.05
2023-05-02T18:52:56.863Z,99985.38
2023-05-02T18:55:25.075Z,99982.22
2023-05-02T18:57:52.082Z,99984.32
2023-05-02T19:00:19.801Z,99981.73
2023-05-02T19:02:47.067Z,99982.96
2023-05-02T19:05:14.416Z,99983.55
2023-05-02T19:07:41.788Z,99984.55
2023-05-02T19:10:10.384Z,99984.59
2023-05-02T19:12:37.508Z,99984.42
2023-05-02T19:15:05.957Z,99985.77
2023-05-02T19:17:32.758Z,99985.98
2023-05-02T19:19:59.734Z,99982.45
2023-05-02T19:22:27.085Z,99981.75
2023-05-02T19:24:53.710Z,99981.95
2023-05-02T19:27:20.276Z,99980.98
2023-05-02T19:29:52.602Z,99984.34
2023-05-02T19:32:21.421Z,99987.17
2023-05-02T19:34:48.032Z,99985.68
2023-05-02T19:37:14.762Z,99985.73
2023-05-02T19:39:41.524Z,99982.84
2023-05-02T19:42:08.732Z,99983.67
2023-05-02T19:44:35.406Z,99982.30
2023-05-02T19:47:02.197Z,99980.19
2023-05-02T19:49:28.929Z,99982.63
2023-05-02T19:51:55.542Z,99983.15
2023-05-02T19:54:22.115Z,99981.36
2023-05-02T19:56:48.789Z,99984.08
2023-05-02T19:59:15.433Z,99990.15
2023-05-02T20:01:42.093Z,99994.80
2023-05-02T20:04:08.927Z,99992.69
2023-05-02T20:06:36.155Z,99989.21
2023-05-02T20:09:03.136Z,99988.60
2023-05-02T20:11:30.313Z,99992.23
2023-05-02T20:13:57.122Z,99989.41
2023-05-02T20:16:24.078Z,99987.31
2023-05-02T20:18:52.202Z,99987.50
2023-05-02T20:21:18.884Z,99987.27
2023-05-02T20:23:45.854Z,99983.93
2023-05-02T20:26:13.524Z,99988.51
2023-05-02T20:28:40.180Z,99989.34
2023-05-02T20:31:07.416Z,99989.95
2023-05-02T20:33:44.535Z,99984.72
2023-05-02T20:36:14.109Z,99987.23
2023-05-02T20:38:41.979Z,99988.27
2023-05-02T20:41:11.756Z,99990.09
2023-05-02T20:43:39.190Z,99994.96
2023-05-02T20:46:11.165Z,99992.13
2023-05-02T20:48:37.895Z,99991.91
2023-05-02T20:51:04.545Z,99990.48
2023-05-02T20:53:31.639Z,99991.46
2023-05-02T20:55:58.418Z,99991.52
2023-05-02T20:58:25.422Z,99991.45
2023-05-02T21:00:52.049Z,99990.93
2023-05-02T21:03:19.054Z,99997.49
2023-05-02T21:05:51.508Z,99996.80
2023-05-02T21:08:18.584Z,100000.02
2023-05-02T21:10:45.461Z,99998.97
2023-05-02T21:13:12.665Z,100002.94
2023-05-02T21:15:39.695Z,100000.83
2023-05-02T21:18:06.667Z,100000.41
2023-05-02T21:20:34.444Z,100004.42
2023-05-02T21:23:01.599Z,100002.21
2023-05-02T21:25:28.407Z,100002.92
2023-05-02T21:27:55.947Z,100001.34
2023-05-02T21:30:23.769Z,100002.87
2023-05-02T21:32:50.470Z,100002.59
2023-05-02T21:35:17.108Z,100002.66
2023-05-02T21:37:43.793Z,100006.27
2023-05-02T21:40:11.184Z,100009.85
2023-05-02T21:42:38.148Z,100017.13
2023-05-02T21:45:06.077Z,100014.65
2023-05-02T21:47:33.279Z,100014.81
2023-05-02T21:50:00.182Z,100014.08
2023-05-02T21:52:27.612Z,100012.23
2023-05-02T21:54:54.208Z,100005.88
2023-05-02T21:57:20.858Z,100007.34
2023-05-02T21:59:47.561Z,100005.52
2023-05-02T22:02:14.231Z,100002.39
2023-05-02T22:04:40.973Z,99999.27
2023-05-02T22:07:07.565Z,99995.30
2023-05-02T22:09:34.166Z,99997.93
2023-05-02T22:12:02.402Z,100001.84
2023-05-02T22:14:37.487Z,100000.27
2023-05-02T22:17:11.136Z,100001.82
2023-05-02T22:19:38.780Z,100003.91
2023-05-02T22:22:05.964Z,99998.36
2023-05-02T22:24:33.249Z,99995.55
2023-05-02T22:26:59.905Z,99994.74
2023-05-02T22:29:26.504Z,99995.21
2023-05-02T22:31:53.112Z,100002.18
2023-05-02T22:34:19.819Z,100003.30
2023-05-02T22:36:46.756Z,99995.72
2023-05-02T22:39:14.947Z,99998.34
2023-05-02T22:41:42.026Z,99995.10
2023-05-02T22:44:08.660Z,99995.76
2023-05-02T22:46:37.469Z,99997.64
2023-05-02T22:49:05.651Z,99998.80
2023-05-02T22:51:32.832Z,100000.42
2023-05-02T22:53:59.900Z,99998.70
2023-05-02T22:56:26.560Z,100004.96
2023-05-02T22:58:53.165Z,100007.80
2023-05-02T23:01:19.869Z,100011.06
2023-05-02T23:03:46.589Z,100014.75
2023-05-02T23:06:13.795Z,100015.47
2023-05-02T23:08:40.471Z,100015.51
2023-05-02T23:11:07.080Z,100013.96
2023-05-02T23:13:34.467Z,100013.20
2023-05-02T23:16:01.300Z,100017.09
2023-05-02T23:18:28.164Z,100017.23
2023-05-02T23:20:54.889Z,100015.48
2023-05-02T23:23:21.901Z,100016.98
2023-05-02T23:25:48.609Z,100016.88
2023-05-02T23:28:16.853Z,100012.99
2023-05-02T23:30:43.625Z,100014.30
2023-05-02T23:33:10.530Z,100018.25
2023-05-02T23:35:37.155Z,100016.61
2023-05-02T23:38:07.479Z,100016.86
2023-05-02T23:40:34.202Z,100012.61
2023-05-02T23:43:00.793Z,100015.23
2023-05-02T23:45:27.738Z,100011.02
2023-05-02T23:47:54.545Z,100013.50
2023-05-02T23:50:21.201Z,100008.60
2023-05-02T23:52:48.041Z,100007.05
2023-05-02T23:55:14.791Z,100006.98
2023-05-02T23:57:42.017Z,100004.91
